Time;durP1;ratioP1;P1;durP2;ratioP2;P2;SDS_P1;SDS_P2;PMS_P1;PMS_P2;Temp;Humidity;BMP_temperature;BMP_pressure;BME280_temperature;BME280_humidity;BME280_pressure;Samples;Min_cycle;Max_cycle;Signal;HPM_P1;HPM_P2
2022/04/04 00:00:11;;;;;;;7.47;3.35;;;;;;;;;;4986324;28;20528;-70
2022/04/04 00:02:37;;;;;;;9.07;3.70;;;;;;;;;;4982913;28;20047;-69
2022/04/04 00:05:04;;;;;;;8.85;3.85;;;;;;;;;;4976629;28;20035;-69
2022/04/04 00:07:30;;;;;;;8.23;4.07;;;;;;;;;;4980478;28;20601;-69
2022/04/04 00:09:56;;;;;;;7.25;3.55;;;;;;;;;;4993241;28;20043;-68
2022/04/04 00:12:22;;;;;;;8.35;4.30;;;;;;;;;;4962780;28;20046;-68
2022/04/04 00:14:49;;;;;;;8.18;4.15;;;;;;;;;;4983667;28;20046;-69
2022/04/04 00:17:15;;;;;;;10.30;4.10;;;;;;;;;;4994463;28;20093;-70
2022/04/04 00:19:41;;;;;;;9.10;4.38;;;;;;;;;;4993028;28;20398;-68
2022/04/04 00:22:07;;;;;;;8.95;4.40;;;;;;;;;;4992332;28;20490;-69
2022/04/04 00:24:35;;;;;;;8.57;4.43;;;;;;;;;;4983444;28;20505;-69
2022/04/04 00:27:01;;;;;;;10.40;4.80;;;;;;;;;;4992999;28;20116;-68
2022/04/04 00:29:27;;;;;;;9.13;4.53;;;;;;;;;;4993192;28;20448;-69
2022/04/04 00:31:53;;;;;;;7.22;4.10;;;;;;;;;;4991868;28;20042;-69
2022/04/04 00:34:20;;;;;;;9.25;4.60;;;;;;;;;;4985709;28;20082;-69
2022/04/04 00:36:47;;;;;;;7.95;4.28;;;;;;;;;;4971609;28;20042;-69
2022/04/04 00:39:19;;;;;;;9.13;4.55;;;;;;;;;;4986220;28;20058;-68
2022/04/04 00:41:45;;;;;;;8.45;4.28;;;;;;;;;;4976239;28;20058;-69
2022/04/04 00:44:11;;;;;;;9.40;4.22;;;;;;;;;;4992265;28;20050;-69
2022/04/04 00:46:40;;;;;;;10.30;4.75;;;;;;;;;;4990296;28;20050;-69
2022/04/04 00:49:06;;;;;;;10.02;4.38;;;;;;;;;;4993348;28;20054;-69
2022/04/04 00:51:32;;;;;;;10.00;4.38;;;;;;;;;;4980756;28;20054;-68
2022/04/04 00:53:58;;;;;;;8.18;4.80;;;;;;;;;;4979469;28;20051;-69
2022/04/04 00:56:27;;;;;;;7.65;4.03;;;;;;;;;;4985368;28;20050;-69
2022/04/04 00:58:53;;;;;;;9.15;4.90;;;;;;;;;;4987594;28;20045;-69
2022/04/04 01:01:19;;;;;;;8.25;4.55;;;;;;;;;;4986973;28;20055;-69
2022/04/04 01:03:45;;;;;;;7.30;4.60;;;;;;;;;;4986627;28;20493;-69
2022/04/04 01:06:11;;;;;;;9.18;4.28;;;;;;;;;;4989273;28;20046;-69
2022/04/04 01:08:37;;;;;;;7.22;4.05;;;;;;;;;;4988274;28;20379;-69
2022/04/04 01:11:03;;;;;;;8.55;4.40;;;;;;;;;;4991122;28;20141;-69
2022/04/04 01:13:29;;;;;;;7.72;4.40;;;;;;;;;;4991072;28;20042;-69
2022/04/04 01:15:55;;;;;;;10.73;4.82;;;;;;;;;;4991638;28;20053;-69
2022/04/04 01:18:21;;;;;;;8.85;4.60;;;;;;;;;;4992640;28;20050;-68
2022/04/04 01:20:48;;;;;;;8.07;5.18;;;;;;;;;;4992050;28;20101;-69
2022/04/04 01:23:18;;;;;;;8.25;4.72;;;;;;;;;;4981268;28;20046;-68
2022/04/04 01:25:44;;;;;;;9.15;4.43;;;;;;;;;;4992089;28;20156;-68
2022/04/04 01:28:10;;;;;;;7.85;4.85;;;;;;;;;;4987895;28;20402;-69
2022/04/04 01:30:36;;;;;;;10.80;5.43;;;;;;;;;;4987782;28;20517;-69
2022/04/04 01:33:02;;;;;;;10.63;5.40;;;;;;;;;;4981642;28;20057;-69
2022/04/04 01:35:29;;;;;;;8.55;5.22;;;;;;;;;;4990224;28;20445;-69
2022/04/04 01:37:55;;;;;;;12.23;6.38;;;;;;;;;;4983593;28;20524;-69
2022/04/04 01:40:21;;;;;;;11.85;6.60;;;;;;;;;;4989483;28;20131;-68
2022/04/04 01:42:48;;;;;;;13.32;7.72;;;;;;;;;;4989328;28;20047;-69
2022/04/04 01:45:15;;;;;;;12.85;7.35;;;;;;;;;;4986320;28;20069;-69
2022/04/04 01:47:41;;;;;;;11.20;7.25;;;;;;;;;;4983881;28;20529;-69
2022/04/04 01:50:07;;;;;;;10.77;6.75;;;;;;;;;;4992041;28;20057;-69
2022/04/04 01:52:33;;;;;;;10.43;7.63;;;;;;;;;;4994255;28;20054;-68
2022/04/04 01:54:59;;;;;;;15.95;9.23;;;;;;;;;;4995373;28;20050;-68
2022/04/04 01:57:25;;;;;;;11.75;8.13;;;;;;;;;;4995827;28;20047;-70
2022/04/04 01:59:51;;;;;;;13.30;8.25;;;;;;;;;;4971822;28;20050;-69
2022/04/04 02:02:17;;;;;;;13.25;8.55;;;;;;;;;;4995107;28;20046;-68
2022/04/04 02:04:43;;;;;;;14.48;9.52;;;;;;;;;;4976483;28;20054;-69
2022/04/04 02:07:10;;;;;;;12.63;8.93;;;;;;;;;;4994263;28;20073;-69
2022/04/04 02:09:36;;;;;;;12.70;8.55;;;;;;;;;;4990077;28;20485;-69
2022/04/04 02:12:02;;;;;;;13.73;9.23;;;;;;;;;;4991053;28;20042;-69
2022/04/04 02:14:28;;;;;;;12.73;8.27;;;;;;;;;;4994762;28;20488;-69
2022/04/04 02:16:54;;;;;;;15.77;9.30;;;;;;;;;;4986042;28;20090;-69
2022/04/04 02:19:20;;;;;;;13.20;8.82;;;;;;;;;;4987665;28;20045;-68
2022/04/04 02:21:46;;;;;;;14.68;10.05;;;;;;;;;;4994017;28;20034;-69
2022/04/04 02:24:12;;;;;;;14.93;9.57;;;;;;;;;;4966030;28;20042;-69
2022/04/04 02:26:39;;;;;;;11.38;8.73;;;;;;;;;;4992043;28;20513;-69
2022/04/04 02:29:05;;;;;;;13.52;10.10;;;;;;;;;;4995615;28;20067;-69
2022/04/04 02:31:31;;;;;;;16.48;9.98;;;;;;;;;;4995192;28;20050;-69
2022/04/04 02:33:57;;;;;;;13.52;9.50;;;;;;;;;;4994118;28;20050;-69
2022/04/04 02:36:23;;;;;;;14.32;10.10;;;;;;;;;;4991488;28;20042;-68
2022/04/04 02:38:50;;;;;;;16.40;10.68;;;;;;;;;;4973937;28;20409;-68
2022/04/04 02:41:16;;;;;;;18.60;11.30;;;;;;;;;;4979143;28;20094;-69
2022/04/04 02:43:42;;;;;;;18.25;11.55;;;;;;;;;;4995793;28;20053;-68
2022/04/04 02:46:11;;;;;;;19.15;12.18;;;;;;;;;;4987924;28;20043;-69
2022/04/04 02:48:37;;;;;;;16.80;11.00;;;;;;;;;;4991230;28;20082;-69
2022/04/04 02:51:03;;;;;;;16.92;11.52;;;;;;;;;;4974608;28;20058;-69
2022/04/04 02:53:29;;;;;;;18.23;11.52;;;;;;;;;;4976645;28;20062;-69
2022/04/04 02:58:40;;;;;;;15.38;10.50;;;;;;;;;;4983405;28;20497;-69
2022/04/04 03:01:06;;;;;;;16.83;10.52;;;;;;;;;;4991040;28;20062;-70
2022/04/04 03:03:32;;;;;;;18.65;11.32;;;;;;;;;;4981880;28;20585;-70
2022/04/04 03:05:58;;;;;;;16.60;11.10;;;;;;;;;;4979202;28;20110;-69
2022/04/04 03:08:24;;;;;;;14.88;10.95;;;;;;;;;;4991254;28;20046;-69
2022/04/04 03:10:50;;;;;;;17.85;11.07;;;;;;;;;;4972543;28;20054;-69
2022/04/04 03:13:16;;;;;;;16.60;10.95;;;;;;;;;;4988568;28;20047;-70
2022/04/04 03:15:42;;;;;;;19.92;12.30;;;;;;;;;;4993527;28;20093;-70
2022/04/04 03:18:08;;;;;;;16.00;11.57;;;;;;;;;;4976885;28;20054;-70
2022/04/04 03:20:35;;;;;;;21.40;12.40;;;;;;;;;;4994220;28;20050;-69
2022/04/04 03:23:02;;;;;;;16.45;11.70;;;;;;;;;;4983749;28;20061;-70
2022/04/04 03:25:28;;;;;;;19.45;12.85;;;;;;;;;;4995040;28;20125;-70
2022/04/04 03:27:54;;;;;;;18.17;11.57;;;;;;;;;;4985949;28;20043;-70
2022/04/04 03:30:21;;;;;;;19.92;12.90;;;;;;;;;;4992192;28;20146;-70
2022/04/04 03:32:49;;;;;;;19.42;13.32;;;;;;;;;;4992776;28;20046;-70
2022/04/04 03:35:15;;;;;;;19.80;13.88;;;;;;;;;;4972018;28;20043;-71
2022/04/04 03:37:42;;;;;;;20.25;13.40;;;;;;;;;;4970051;28;20038;-70
2022/04/04 03:40:09;;;;;;;19.15;13.35;;;;;;;;;;4992372;28;20085;-70
2022/04/04 03:42:37;;;;;;;18.15;13.30;;;;;;;;;;4991192;28;20472;-70
2022/04/04 03:45:04;;;;;;;17.83;11.90;;;;;;;;;;4994072;28;20425;-70
2022/04/04 03:47:31;;;;;;;18.45;11.50;;;;;;;;;;4987489;28;20504;-69
2022/04/04 03:49:59;;;;;;;19.70;13.48;;;;;;;;;;4994194;28;20162;-69
2022/04/04 03:52:25;;;;;;;19.58;13.02;;;;;;;;;;4987828;28;20042;-68
2022/04/04 03:54:51;;;;;;;22.50;13.88;;;;;;;;;;4992778;28;20053;-69
2022/04/04 03:57:17;;;;;;;18.63;13.10;;;;;;;;;;4982572;28;20513;-68
2022/04/04 03:59:44;;;;;;;18.88;13.18;;;;;;;;;;4987787;28;20043;-68
2022/04/04 04:02:11;;;;;;;19.30;13.75;;;;;;;;;;4976221;28;20051;-68
2022/04/04 04:04:37;;;;;;;19.13;12.70;;;;;;;;;;4991186;28;20121;-69
2022/04/04 04:07:04;;;;;;;18.65;13.77;;;;;;;;;;4986079;28;20043;-69
2022/04/04 04:09:30;;;;;;;20.20;13.48;;;;;;;;;;4989070;28;20556;-68
2022/04/04 04:11:56;;;;;;;20.40;13.20;;;;;;;;;;4984416;28;20489;-69
2022/04/04 04:14:24;;;;;;;19.55;13.10;;;;;;;;;;4993745;28;20054;-69
2022/04/04 04:16:50;;;;;;;18.27;13.68;;;;;;;;;;4975608;28;20052;-69
2022/04/04 04:22:01;;;;;;;17.65;12.90;;;;;;;;;;4979536;28;20054;-69
2022/04/04 04:24:27;;;;;;;18.50;12.43;;;;;;;;;;4984902;28;20490;-69
2022/04/04 04:26:54;;;;;;;18.85;13.02;;;;;;;;;;4991597;28;20059;-69
2022/04/04 04:29:20;;;;;;;19.83;13.05;;;;;;;;;;4993079;28;20489;-69
2022/04/04 04:31:46;;;;;;;19.00;12.95;;;;;;;;;;4993763;28;20053;-69
2022/04/04 04:34:12;;;;;;;21.88;13.60;;;;;;;;;;4993238;28;20498;-69
2022/04/04 04:36:39;;;;;;;17.95;13.18;;;;;;;;;;4983919;28;20051;-69
2022/04/04 04:39:08;;;;;;;17.90;13.23;;;;;;;;;;4978341;28;20049;-69
2022/04/04 04:41:34;;;;;;;19.30;13.13;;;;;;;;;;4981240;28;20050;-69
2022/04/04 04:44:03;;;;;;;19.65;13.60;;;;;;;;;;4992618;28;20050;-69
2022/04/04 04:46:30;;;;;;;18.90;13.75;;;;;;;;;;4983439;28;20121;-69
2022/04/04 04:48:56;;;;;;;20.17;14.27;;;;;;;;;;4979102;28;20476;-69
2022/04/04 04:51:22;;;;;;;19.48;13.07;;;;;;;;;;4988398;28;20387;-69
2022/04/04 04:53:48;;;;;;;19.63;13.50;;;;;;;;;;4979218;28;20488;-69
2022/04/04 04:56:14;;;;;;;18.67;13.70;;;;;;;;;;4993326;28;20038;-69
2022/04/04 04:58:40;;;;;;;19.65;13.15;;;;;;;;;;4990188;28;20383;-69
2022/04/04 05:01:06;;;;;;;20.13;13.60;;;;;;;;;;4978992;28;20125;-69
2022/04/04 05:03:33;;;;;;;17.23;11.95;;;;;;;;;;4989638;28;20055;-69
2022/04/04 05:05:59;;;;;;;18.80;13.15;;;;;;;;;;4979535;28;20047;-69
2022/04/04 05:08:25;;;;;;;21.13;13.93;;;;;;;;;;4978356;28;20050;-69
2022/04/04 05:10:54;;;;;;;20.60;13.63;;;;;;;;;;4988442;28;20054;-69
2022/04/04 05:13:21;;;;;;;19.50;14.25;;;;;;;;;;4987756;28;20042;-69
2022/04/04 05:15:47;;;;;;;20.70;14.02;;;;;;;;;;4993428;28;20048;-69
2022/04/04 05:18:13;;;;;;;16.83;12.98;;;;;;;;;;4954529;28;20058;-70
2022/04/04 05:20:39;;;;;;;20.45;15.05;;;;;;;;;;4990255;28;20043;-69
2022/04/04 05:23:05;;;;;;;18.52;14.15;;;;;;;;;;4978874;28;20054;-69
2022/04/04 05:25:31;;;;;;;20.48;14.45;;;;;;;;;;4991110;28;20050;-69
2022/04/04 05:27:58;;;;;;;17.83;12.57;;;;;;;;;;4979704;28;20105;-69
2022/04/04 05:30:25;;;;;;;19.30;15.02;;;;;;;;;;4983896;28;20455;-69
2022/04/04 05:32:51;;;;;;;20.02;14.85;;;;;;;;;;4991595;28;20078;-69
2022/04/04 05:35:19;;;;;;;19.00;13.07;;;;;;;;;;4992958;28;20046;-69
2022/04/04 05:37:45;;;;;;;19.02;14.02;;;;;;;;;;4978947;28;20441;-69
2022/04/04 05:40:12;;;;;;;17.05;13.05;;;;;;;;;;4987829;28;20043;-68
2022/04/04 05:42:38;;;;;;;18.92;14.25;;;;;;;;;;4991130;28;20521;-69
2022/04/04 05:45:07;;;;;;;23.13;14.70;;;;;;;;;;4991298;28;20051;-69
2022/04/04 05:47:33;;;;;;;19.23;14.30;;;;;;;;;;4964641;28;20047;-69
2022/04/04 05:49:59;;;;;;;17.50;14.10;;;;;;;;;;4960301;28;20039;-69
2022/04/04 05:52:25;;;;;;;19.70;13.93;;;;;;;;;;4978744;28;20110;-69
2022/04/04 05:54:55;;;;;;;21.00;12.88;;;;;;;;;;4990495;28;20489;-69
2022/04/04 05:57:24;;;;;;;17.60;12.35;;;;;;;;;;4984624;28;20055;-69
2022/04/04 05:59:51;;;;;;;18.40;12.73;;;;;;;;;;4988516;28;20098;-69
2022/04/04 06:02:17;;;;;;;17.27;12.48;;;;;;;;;;4976856;28;20051;-69
2022/04/04 06:04:43;;;;;;;15.00;10.88;;;;;;;;;;4959964;28;20450;-70
2022/04/04 06:07:09;;;;;;;18.08;12.10;;;;;;;;;;4988832;28;20074;-69
2022/04/04 06:09:35;;;;;;;14.75;11.07;;;;;;;;;;4986654;28;20057;-69
2022/04/04 06:12:01;;;;;;;17.95;12.20;;;;;;;;;;4991561;28;20046;-69
2022/04/04 06:14:27;;;;;;;15.85;11.32;;;;;;;;;;4973978;28;20041;-69
2022/04/04 06:16:53;;;;;;;15.65;11.73;;;;;;;;;;4991467;28;20058;-70
2022/04/04 06:19:20;;;;;;;15.32;11.20;;;;;;;;;;4983385;28;20402;-69
2022/04/04 06:21:46;;;;;;;18.88;12.23;;;;;;;;;;4992520;28;20047;-70
2022/04/04 06:24:15;;;;;;;15.82;10.45;;;;;;;;;;4991047;28;20556;-69
2022/04/04 06:26:41;;;;;;;15.02;10.40;;;;;;;;;;4990721;28;20074;-70
2022/04/04 06:29:09;;;;;;;15.43;10.27;;;;;;;;;;4969904;28;20050;-70
2022/04/04 06:31:36;;;;;;;15.32;11.23;;;;;;;;;;4993570;28;20453;-69
2022/04/04 06:34:04;;;;;;;15.77;11.38;;;;;;;;;;4990318;28;20066;-70
2022/04/04 06:36:30;;;;;;;16.58;10.82;;;;;;;;;;4991769;28;20050;-70
2022/04/04 06:38:56;;;;;;;18.33;11.35;;;;;;;;;;4990467;28;20102;-70
2022/04/04 06:41:23;;;;;;;20.27;11.60;;;;;;;;;;4985666;28;20490;-70
2022/04/04 06:43:53;;;;;;;16.63;11.10;;;;;;;;;;4993292;28;20404;-69
2022/04/04 06:46:19;;;;;;;17.90;12.38;;;;;;;;;;4986678;28;20517;-69
2022/04/04 06:48:45;;;;;;;14.75;10.55;;;;;;;;;;4982150;28;20101;-69
2022/04/04 06:51:12;;;;;;;19.70;11.18;;;;;;;;;;4987607;28;20517;-70
2022/04/04 06:53:38;;;;;;;20.25;12.18;;;;;;;;;;4972668;28;20045;-69
2022/04/04 06:56:05;;;;;;;16.38;10.68;;;;;;;;;;4976441;28;20061;-69
2022/04/04 06:58:31;;;;;;;15.63;10.35;;;;;;;;;;4983855;28;20035;-69
2022/04/04 07:00:57;;;;;;;18.15;10.48;;;;;;;;;;4976540;28;20038;-69
2022/04/04 07:03:24;;;;;;;15.88;11.68;;;;;;;;;;4971045;28;20058;-69
2022/04/04 07:05:50;;;;;;;16.15;11.20;;;;;;;;;;4990721;28;20046;-69
2022/04/04 07:08:16;;;;;;;17.40;11.48;;;;;;;;;;4995806;28;20079;-70
2022/04/04 07:10:42;;;;;;;15.57;10.93;;;;;;;;;;4986506;28;20050;-69
2022/04/04 07:13:09;;;;;;;19.13;11.40;;;;;;;;;;4979307;28;20051;-70
2022/04/04 07:15:35;;;;;;;16.98;11.02;;;;;;;;;;4976272;28;20502;-68
2022/04/04 07:18:01;;;;;;;18.13;12.45;;;;;;;;;;4983071;28;20046;-70
2022/04/04 07:20:27;;;;;;;20.88;11.45;;;;;;;;;;4988740;28;20468;-69
2022/04/04 07:22:53;;;;;;;18.13;11.90;;;;;;;;;;4976433;28;20413;-69
2022/04/04 07:25:21;;;;;;;18.92;11.63;;;;;;;;;;4986629;28;20112;-69
2022/04/04 07:27:48;;;;;;;16.23;12.00;;;;;;;;;;4993779;28;20054;-70
2022/04/04 07:30:18;;;;;;;17.02;11.95;;;;;;;;;;4977466;28;20045;-70
2022/04/04 07:32:44;;;;;;;15.45;12.02;;;;;;;;;;4995111;28;20054;-70
2022/04/04 07:35:12;;;;;;;17.60;13.00;;;;;;;;;;4986132;28;20118;-68
2022/04/04 07:37:38;;;;;;;18.75;12.45;;;;;;;;;;4983133;28;20058;-69
2022/04/04 07:40:06;;;;;;;18.60;13.05;;;;;;;;;;4994443;28;20050;-69
2022/04/04 07:42:32;;;;;;;17.63;12.68;;;;;;;;;;4988497;28;20521;-69
2022/04/04 07:44:58;;;;;;;18.13;12.85;;;;;;;;;;4975200;28;21167;-69
2022/04/04 07:47:24;;;;;;;21.02;13.52;;;;;;;;;;4982972;28;20053;-70
2022/04/04 07:49:50;;;;;;;25.60;12.80;;;;;;;;;;4970079;28;20496;-70
2022/04/04 07:52:17;;;;;;;18.10;13.60;;;;;;;;;;4990948;28;20085;-70
2022/04/04 07:54:43;;;;;;;19.73;12.95;;;;;;;;;;4993992;28;20050;-70
2022/04/04 07:57:09;;;;;;;20.75;14.02;;;;;;;;;;4995049;28;20472;-70
2022/04/04 07:59:36;;;;;;;15.52;11.57;;;;;;;;;;4975185;28;20102;-69
2022/04/04 08:02:02;;;;;;;23.02;15.18;;;;;;;;;;4989917;28;20456;-69
2022/04/04 08:04:28;;;;;;;17.63;13.60;;;;;;;;;;4991716;28;20050;-69
2022/04/04 08:06:54;;;;;;;21.77;14.43;;;;;;;;;;4977444;28;20073;-69
2022/04/04 08:09:20;;;;;;;20.17;14.00;;;;;;;;;;4981388;28;20478;-69
2022/04/04 08:11:46;;;;;;;19.27;14.45;;;;;;;;;;4985435;28;20045;-69
2022/04/04 08:14:12;;;;;;;18.20;15.35;;;;;;;;;;4979371;28;20051;-70
2022/04/04 08:16:39;;;;;;;20.40;14.15;;;;;;;;;;4975442;28;20058;-70
2022/04/04 08:19:05;;;;;;;18.02;14.50;;;;;;;;;;4986647;28;20046;-70
2022/04/04 08:21:31;;;;;;;19.45;15.65;;;;;;;;;;4994165;28;20049;-70
2022/04/04 08:23:57;;;;;;;17.67;14.75;;;;;;;;;;4991032;28;20042;-69
2022/04/04 08:26:24;;;;;;;16.75;14.75;;;;;;;;;;4994464;28;20109;-69
2022/04/04 08:28:50;;;;;;;18.15;14.15;;;;;;;;;;4976095;28;20131;-70
2022/04/04 08:31:16;;;;;;;18.58;14.85;;;;;;;;;;4975594;28;20075;-69
2022/04/04 08:33:42;;;;;;;19.77;15.75;;;;;;;;;;4978960;28;20054;-70
2022/04/04 08:36:08;;;;;;;19.73;16.13;;;;;;;;;;4991710;28;20061;-69
2022/04/04 08:38:37;;;;;;;20.88;15.70;;;;;;;;;;4993662;28;20465;-70
2022/04/04 08:41:05;;;;;;;22.58;15.40;;;;;;;;;;4981670;28;20080;-69
2022/04/04 08:43:35;;;;;;;17.20;15.38;;;;;;;;;;4981964;28;20137;-70
2022/04/04 08:46:02;;;;;;;17.88;14.90;;;;;;;;;;4989705;28;20093;-70
2022/04/04 08:48:30;;;;;;;19.55;15.25;;;;;;;;;;4974431;28;20454;-70
2022/04/04 08:50:57;;;;;;;18.48;15.10;;;;;;;;;;4974649;28;20057;-69
2022/04/04 08:53:23;;;;;;;19.08;15.90;;;;;;;;;;4977842;28;20070;-70
2022/04/04 08:55:49;;;;;;;18.15;15.73;;;;;;;;;;4973625;28;20051;-70
2022/04/04 08:58:15;;;;;;;16.83;13.35;;;;;;;;;;4983343;28;20057;-69
2022/04/04 09:00:41;;;;;;;18.98;13.50;;;;;;;;;;4990303;28;20512;-69
2022/04/04 09:03:09;;;;;;;16.83;13.25;;;;;;;;;;4993743;28;20051;-68
2022/04/04 09:05:49;;;;;;;16.75;13.63;;;;;;;;;;4992920;28;20061;-69
2022/04/04 09:08:15;;;;;;;18.20;13.02;;;;;;;;;;4992390;28;20042;-70
2022/04/04 09:10:43;;;;;;;14.57;11.80;;;;;;;;;;4989804;28;20410;-68
2022/04/04 09:13:12;;;;;;;14.25;10.15;;;;;;;;;;4977660;28;20050;-70
2022/04/04 09:15:50;;;;;;;11.68;9.02;;;;;;;;;;4973985;28;20038;-68
2022/04/04 09:18:16;;;;;;;13.02;9.70;;;;;;;;;;4974595;28;20511;-68
2022/04/04 09:20:51;;;;;;;13.10;10.10;;;;;;;;;;4974209;28;20071;-69
2022/04/04 09:23:18;;;;;;;11.32;7.20;;;;;;;;;;4986957;28;20120;-70
2022/04/04 09:25:44;;;;;;;12.68;9.40;;;;;;;;;;4990513;28;20516;-70
2022/04/04 09:28:17;;;;;;;11.70;8.63;;;;;;;;;;4975314;28;20104;-70
2022/04/04 09:30:44;;;;;;;11.57;8.43;;;;;;;;;;4983753;28;20058;-70
2022/04/04 09:33:34;;;;;;;11.70;6.72;;;;;;;;;;4985238;28;20405;-70
2022/04/04 09:36:00;;;;;;;11.23;7.65;;;;;;;;;;4973236;28;20035;-69
2022/04/04 09:38:26;;;;;;;8.82;6.72;;;;;;;;;;4986230;28;20054;-69
2022/04/04 09:40:52;;;;;;;8.00;4.75;;;;;;;;;;4993182;28;20053;-68
2022/04/04 09:43:18;;;;;;;8.10;4.13;;;;;;;;;;4979200;28;20497;-68
2022/04/04 09:45:46;;;;;;;9.60;5.25;;;;;;;;;;4980334;28;20498;-68
2022/04/04 09:48:13;;;;;;;9.27;5.30;;;;;;;;;;4983782;28;20552;-68
2022/04/04 09:50:45;;;;;;;8.70;5.50;;;;;;;;;;4975993;28;20050;-69
2022/04/04 09:53:17;;;;;;;9.45;5.30;;;;;;;;;;4991890;28;20057;-69
2022/04/04 09:55:55;;;;;;;9.93;6.35;;;;;;;;;;4992197;28;20050;-69
2022/04/04 09:58:22;;;;;;;6.93;4.60;;;;;;;;;;4975116;28;20511;-69
2022/04/04 10:00:49;;;;;;;8.52;4.32;;;;;;;;;;4993157;28;20054;-69
2022/04/04 10:03:16;;;;;;;8.23;4.00;;;;;;;;;;4976634;28;20066;-69
2022/04/04 10:05:43;;;;;;;8.30;4.13;;;;;;;;;;4975327;28;20130;-69
2022/04/04 10:08:10;;;;;;;6.25;4.38;;;;;;;;;;4991593;28;20042;-68
2022/04/04 10:10:36;;;;;;;8.38;4.38;;;;;;;;;;4961680;28;20117;-68
2022/04/04 10:13:02;;;;;;;5.50;3.00;;;;;;;;;;4977510;28;20074;-68
2022/04/04 10:15:28;;;;;;;5.47;3.30;;;;;;;;;;4977864;28;20129;-69
2022/04/04 10:17:56;;;;;;;5.97;3.45;;;;;;;;;;4960347;28;20046;-69
2022/04/04 10:20:22;;;;;;;6.43;3.17;;;;;;;;;;4977170;28;20809;-69
2022/04/04 10:22:51;;;;;;;5.95;3.03;;;;;;;;;;4995359;28;20085;-69
2022/04/04 10:25:19;;;;;;;6.10;3.10;;;;;;;;;;4996208;28;20039;-69
2022/04/04 10:27:46;;;;;;;5.72;3.20;;;;;;;;;;4996592;28;20061;-70
2022/04/04 10:30:13;;;;;;;5.00;2.45;;;;;;;;;;4967326;28;20050;-70
2022/04/04 10:32:48;;;;;;;7.95;2.75;;;;;;;;;;4994533;28;20054;-70
2022/04/04 10:35:14;;;;;;;5.72;2.80;;;;;;;;;;4985617;28;20046;-69
2022/04/04 10:37:43;;;;;;;5.43;3.10;;;;;;;;;;4986320;28;20153;-69
2022/04/04 10:40:23;;;;;;;5.28;3.22;;;;;;;;;;4996497;28;20077;-69
2022/04/04 10:43:02;;;;;;;5.57;3.17;;;;;;;;;;4995461;28;20065;-69
2022/04/04 10:45:30;;;;;;;6.47;3.08;;;;;;;;;;4978737;28;20054;-69
2022/04/04 10:48:04;;;;;;;6.88;3.17;;;;;;;;;;4984548;28;20498;-70
2022/04/04 10:50:33;;;;;;;7.55;3.53;;;;;;;;;;4992695;28;20494;-69
2022/04/04 10:53:01;;;;;;;7.35;3.53;;;;;;;;;;4973756;28;20070;-69
2022/04/04 10:55:36;;;;;;;6.93;3.90;;;;;;;;;;4992960;28;20054;-69
2022/04/04 10:58:12;;;;;;;7.28;4.07;;;;;;;;;;4995513;28;20042;-69
2022/04/04 11:00:58;;;;;;;5.97;3.55;;;;;;;;;;4995942;28;20362;-69
2022/04/04 11:03:28;;;;;;;6.13;3.63;;;;;;;;;;4966684;28;20042;-69
2022/04/04 11:09:22;;;;;;;6.68;3.83;;;;;;;;;;4976407;28;20498;-70
2022/04/04 11:12:11;;;;;;;7.18;3.75;;;;;;;;;;4948976;28;20100;-71
2022/04/04 11:14:39;;;;;;;7.72;3.95;;;;;;;;;;4994787;28;20042;-70
2022/04/04 11:17:18;;;;;;;7.60;3.78;;;;;;;;;;4995377;28;20093;-71
2022/04/04 11:19:46;;;;;;;8.45;3.65;;;;;;;;;;4993534;28;20089;-70
2022/04/04 11:22:17;;;;;;;7.78;4.50;;;;;;;;;;4978111;28;20046;-70
2022/04/04 11:24:43;;;;;;;7.72;3.50;;;;;;;;;;4977544;28;20509;-70
2022/04/04 11:27:10;;;;;;;5.55;3.10;;;;;;;;;;4976229;28;20082;-71
2022/04/04 11:29:38;;;;;;;6.57;3.80;;;;;;;;;;4959529;28;20053;-70
2022/04/04 11:32:04;;;;;;;7.82;3.78;;;;;;;;;;4960455;28;20494;-70
2022/04/04 11:34:31;;;;;;;6.85;3.50;;;;;;;;;;4983457;28;20568;-70
2022/04/04 11:36:58;;;;;;;5.43;3.15;;;;;;;;;;4978640;28;20106;-70
2022/04/04 11:39:24;;;;;;;6.07;3.13;;;;;;;;;;4975883;28;20414;-70
2022/04/04 11:41:51;;;;;;;8.02;3.70;;;;;;;;;;4976181;28;20054;-69
2022/04/04 11:44:25;;;;;;;6.15;2.75;;;;;;;;;;4986478;28;20409;-69
2022/04/04 11:47:08;;;;;;;6.45;3.30;;;;;;;;;;4976056;28;20177;-68
2022/04/04 11:49:36;;;;;;;6.88;2.78;;;;;;;;;;4995194;28;20065;-69
2022/04/04 11:52:04;;;;;;;12.73;2.90;;;;;;;;;;4993520;28;20053;-68
2022/04/04 11:54:51;;;;;;;7.32;2.90;;;;;;;;;;4981815;28;20453;-68
2022/04/04 11:57:17;;;;;;;5.55;2.95;;;;;;;;;;4987951;28;20497;-69
2022/04/04 11:59:44;;;;;;;5.72;2.50;;;;;;;;;;4977606;28;20513;-68
2022/04/04 12:02:11;;;;;;;5.15;2.50;;;;;;;;;;4988988;28;20076;-68
2022/04/04 12:04:38;;;;;;;6.47;2.13;;;;;;;;;;4990369;28;20078;-68
2022/04/04 12:07:05;;;;;;;5.95;2.08;;;;;;;;;;4958388;28;20053;-68
2022/04/04 12:09:32;;;;;;;6.30;2.20;;;;;;;;;;4981041;28;20407;-68
2022/04/04 12:12:16;;;;;;;6.45;2.28;;;;;;;;;;4959990;28;20047;-68
2022/04/04 12:14:43;;;;;;;5.43;1.75;;;;;;;;;;4981965;28;20046;-68
2022/04/04 12:17:14;;;;;;;4.78;2.50;;;;;;;;;;4993673;28;20136;-68
2022/04/04 12:19:44;;;;;;;4.60;1.90;;;;;;;;;;4994663;28;20051;-68
2022/04/04 12:24:55;;;;;;;5.70;2.20;;;;;;;;;;4986768;28;20050;-68
2022/04/04 12:27:22;;;;;;;5.13;1.90;;;;;;;;;;4984023;28;20069;-68
2022/04/04 12:29:48;;;;;;;4.40;2.20;;;;;;;;;;4991711;28;20140;-68
2022/04/04 12:32:20;;;;;;;4.68;1.90;;;;;;;;;;4976802;28;20097;-69
2022/04/04 12:34:58;;;;;;;5.82;2.67;;;;;;;;;;4993955;28;20060;-68
2022/04/04 12:37:33;;;;;;;4.90;1.92;;;;;;;;;;4994240;28;20058;-69
2022/04/04 12:40:16;;;;;;;7.15;2.00;;;;;;;;;;4984952;28;20051;-68
2022/04/04 12:42:42;;;;;;;6.00;2.10;;;;;;;;;;4992411;28;20058;-68
2022/04/04 12:45:10;;;;;;;4.10;1.85;;;;;;;;;;4992715;28;20130;-69
2022/04/04 12:47:53;;;;;;;5.47;2.35;;;;;;;;;;4977121;28;20052;-69
2022/04/04 12:50:21;;;;;;;5.65;2.40;;;;;;;;;;4993310;28;20057;-69
2022/04/04 12:53:00;;;;;;;6.15;1.92;;;;;;;;;;4993952;28;20133;-68
2022/04/04 12:55:26;;;;;;;4.43;1.75;;;;;;;;;;4987822;28;20047;-68
2022/04/04 12:57:53;;;;;;;2.72;1.40;;;;;;;;;;4975686;28;20046;-68
2022/04/04 13:00:29;;;;;;;4.60;2.10;;;;;;;;;;4991394;28;20105;-68
2022/04/04 13:02:56;;;;;;;8.48;3.05;;;;;;;;;;4993625;28;20077;-68
2022/04/04 13:05:25;;;;;;;8.75;2.70;;;;;;;;;;4989165;28;20505;-69
2022/04/04 13:07:55;;;;;;;5.30;2.40;;;;;;;;;;4973151;28;20038;-68
2022/04/04 13:10:24;;;;;;;3.90;1.50;;;;;;;;;;4988666;28;20437;-69
2022/04/04 13:12:51;;;;;;;4.55;1.70;;;;;;;;;;4976080;28;20060;-69
2022/04/04 13:15:36;;;;;;;2.85;1.38;;;;;;;;;;4989237;28;20049;-70
2022/04/04 13:18:03;;;;;;;4.20;1.40;;;;;;;;;;4993314;28;20049;-69
2022/04/04 13:20:29;;;;;;;3.75;1.58;;;;;;;;;;4975006;28;20031;-70
2022/04/04 13:22:55;;;;;;;3.65;1.40;;;;;;;;;;4993550;28;20061;-69
2022/04/04 13:25:21;;;;;;;4.15;1.40;;;;;;;;;;4992218;28;20417;-69
2022/04/04 13:27:47;;;;;;;2.20;1.20;;;;;;;;;;4993553;28;20126;-69
2022/04/04 13:30:13;;;;;;;1.92;1.08;;;;;;;;;;4982550;28;20074;-69
2022/04/04 13:32:43;;;;;;;2.63;1.15;;;;;;;;;;4988155;28;20073;-70
2022/04/04 13:35:09;;;;;;;3.33;1.00;;;;;;;;;;4975382;28;20046;-69
2022/04/04 13:37:35;;;;;;;1.90;1.17;;;;;;;;;;4990127;28;20047;-70
2022/04/04 13:40:01;;;;;;;4.53;2.08;;;;;;;;;;4974427;28;20121;-70
2022/04/04 13:42:27;;;;;;;3.05;1.25;;;;;;;;;;4985655;28;20057;-69
2022/04/04 13:44:53;;;;;;;4.97;2.10;;;;;;;;;;4981970;28;20405;-69
2022/04/04 13:47:19;;;;;;;6.47;3.42;;;;;;;;;;4999730;28;20046;-69
2022/04/04 13:49:45;;;;;;;4.07;1.42;;;;;;;;;;4994690;28;20046;-68
2022/04/04 13:52:13;;;;;;;3.85;1.20;;;;;;;;;;4983838;28;20445;-69
2022/04/04 13:54:40;;;;;;;4.43;1.30;;;;;;;;;;4970783;28;20046;-69
2022/04/04 13:57:06;;;;;;;5.18;1.40;;;;;;;;;;4996308;28;20129;-69
2022/04/04 13:59:32;;;;;;;7.38;2.17;;;;;;;;;;4985418;28;20526;-69
2022/04/04 14:01:58;;;;;;;8.38;2.47;;;;;;;;;;4999750;28;20073;-70
2022/04/04 14:04:24;;;;;;;5.97;1.60;;;;;;;;;;4998828;28;20466;-70
2022/04/04 14:06:50;;;;;;;7.20;2.00;;;;;;;;;;4998731;28;20125;-69
2022/04/04 14:09:17;;;;;;;3.60;1.40;;;;;;;;;;4998927;28;20401;-69
2022/04/04 14:11:43;;;;;;;4.53;1.73;;;;;;;;;;4992019;28;20063;-69
2022/04/04 14:14:11;;;;;;;3.20;1.42;;;;;;;;;;4973507;28;20130;-69
2022/04/04 14:16:38;;;;;;;4.25;1.70;;;;;;;;;;4971218;28;20043;-70
2022/04/04 14:19:05;;;;;;;3.20;1.40;;;;;;;;;;4987714;28;20072;-68
2022/04/04 14:21:31;;;;;;;1.83;0.88;;;;;;;;;;4986700;28;20096;-69
2022/04/04 14:23:57;;;;;;;3.17;1.38;;;;;;;;;;4988405;28;20051;-69
2022/04/04 14:26:23;;;;;;;3.00;1.25;;;;;;;;;;4986695;28;20039;-69
2022/04/04 14:28:49;;;;;;;2.30;1.00;;;;;;;;;;4999495;28;20042;-69
2022/04/04 14:31:15;;;;;;;7.18;2.63;;;;;;;;;;4997874;28;20043;-69
2022/04/04 14:33:42;;;;;;;6.15;2.75;;;;;;;;;;4994747;28;20068;-68
2022/04/04 14:36:08;;;;;;;4.90;1.92;;;;;;;;;;4966116;28;20035;-69
2022/04/04 14:38:37;;;;;;;5.97;2.33;;;;;;;;;;4999564;28;20050;-69
2022/04/04 14:41:04;;;;;;;4.85;1.33;;;;;;;;;;4998590;28;20050;-69